sensor_id;sensor_type;location;lat;lon;timestamp;P1;durP1;ratioP1;P2;durP2;ratioP2
25481;SDS011;13395;50.752;4.268;2022-12-07T00:01:18;35.88;;;20.38;;
25481;SDS011;13395;50.752;4.268;2022-12-07T00:03:46;38.05;;;19.30;;
25481;SDS011;13395;50.752;4.268;2022-12-07T00:06:13;40.97;;;20.52;;
25481;SDS011;13395;50.752;4.268;2022-12-07T00:08:40;37.75;;;20.63;;
25481;SDS011;13395;50.752;4.268;2022-12-07T00:13:33;34.00;;;19.17;;
25481;SDS011;13395;50.752;4.268;2022-12-07T00:16:02;29.30;;;17.98;;
25481;SDS011;13395;50.752;4.268;2022-12-07T00:18:32;30.58;;;18.48;;
25481;SDS011;13395;50.752;4.268;2022-12-07T00:21:20;36.17;;;19.52;;
25481;SDS011;13395;50.752;4.268;2022-12-07T00:23:46;36.42;;;18.45;;
25481;SDS011;13395;50.752;4.268;2022-12-07T00:26:14;35.30;;;18.80;;
25481;SDS011;13395;50.752;4.268;2022-12-07T00:28:46;37.95;;;20.10;;
25481;SDS011;13395;50.752;4.268;2022-12-07T00:31:13;39.75;;;19.83;;
25481;SDS011;13395;50.752;4.268;2022-12-07T00:33:40;33.90;;;19.63;;
25481;SDS011;13395;50.752;4.268;2022-12-07T00:36:06;28.98;;;16.90;;
25481;SDS011;13395;50.752;4.268;2022-12-07T00:38:35;29.98;;;17.65;;
25481;SDS011;13395;50.752;4.268;2022-12-07T00:41:03;34.75;;;17.88;;
25481;SDS011;13395;50.752;4.268;2022-12-07T00:43:35;43.40;;;19.55;;
25481;SDS011;13395;50.752;4.268;2022-12-07T00:46:00;38.65;;;19.30;;
25481;SDS011;13395;50.752;4.268;2022-12-07T00:48:26;34.63;;;19.08;;
25481;SDS011;13395;50.752;4.268;2022-12-07T00:50:52;40.90;;;19.08;;
25481;SDS011;13395;50.752;4.268;2022-12-07T00:53:17;32.25;;;19.73;;
25481;SDS011;13395;50.752;4.268;2022-12-07T00:55:44;37.65;;;19.42;;
25481;SDS011;13395;50.752;4.268;2022-12-07T00:58:10;34.58;;;19.05;;
25481;SDS011;13395;50.752;4.268;2022-12-07T01:00:36;32.78;;;18.42;;
25481;SDS011;13395;50.752;4.268;2022-12-07T01:03:04;34.40;;;19.38;;
25481;SDS011;13395;50.752;4.268;2022-12-07T01:05:31;42.10;;;19.90;;
25481;SDS011;13395;50.752;4.268;2022-12-07T01:07:56;31.83;;;18.52;;
25481;SDS011;13395;50.752;4.268;2022-12-07T01:10:22;39.83;;;20.42;;
25481;SDS011;13395;50.752;4.268;2022-12-07T01:12:47;30.77;;;19.23;;
25481;SDS011;13395;50.752;4.268;2022-12-07T01:15:13;32.95;;;18.60;;
25481;SDS011;13395;50.752;4.268;2022-12-07T01:17:39;24.98;;;17.73;;
25481;SDS011;13395;50.752;4.268;2022-12-07T01:20:05;33.47;;;19.13;;
25481;SDS011;13395;50.752;4.268;2022-12-07T01:22:31;32.75;;;17.00;;
25481;SDS011;13395;50.752;4.268;2022-12-07T01:25:01;27.35;;;16.52;;
25481;SDS011;13395;50.752;4.268;2022-12-07T01:27:26;36.03;;;17.67;;
25481;SDS011;13395;50.752;4.268;2022-12-07T01:29:52;31.42;;;17.27;;
25481;SDS011;13395;50.752;4.268;2022-12-07T01:32:17;30.77;;;16.70;;
25481;SDS011;13395;50.752;4.268;2022-12-07T01:34:43;26.70;;;16.98;;
25481;SDS011;13395;50.752;4.268;2022-12-07T01:37:09;24.90;;;16.60;;
25481;SDS011;13395;50.752;4.268;2022-12-07T01:39:34;32.55;;;18.42;;
25481;SDS011;13395;50.752;4.268;2022-12-07T01:42:00;29.88;;;18.48;;
25481;SDS011;13395;50.752;4.268;2022-12-07T01:44:26;27.38;;;17.73;;
25481;SDS011;13395;50.752;4.268;2022-12-07T01:46:58;31.90;;;19.08;;
25481;SDS011;13395;50.752;4.268;2022-12-07T01:52:18;30.90;;;16.75;;
25481;SDS011;13395;50.752;4.268;2022-12-07T01:54:54;26.35;;;17.75;;
25481;SDS011;13395;50.752;4.268;2022-12-07T01:57:30;36.83;;;17.77;;
25481;SDS011;13395;50.752;4.268;2022-12-07T01:59:57;32.13;;;17.08;;
25481;SDS011;13395;50.752;4.268;2022-12-07T02:02:27;27.50;;;17.17;;
25481;SDS011;13395;50.752;4.268;2022-12-07T02:04:57;33.08;;;16.95;;
25481;SDS011;13395;50.752;4.268;2022-12-07T02:07:23;31.88;;;16.90;;
25481;SDS011;13395;50.752;4.268;2022-12-07T02:09:51;28.25;;;17.55;;
25481;SDS011;13395;50.752;4.268;2022-12-07T02:12:17;37.70;;;19.23;;
25481;SDS011;13395;50.752;4.268;2022-12-07T02:14:43;31.15;;;18.85;;
25481;SDS011;13395;50.752;4.268;2022-12-07T02:17:14;34.65;;;19.88;;
25481;SDS011;13395;50.752;4.268;2022-12-07T02:20:09;33.13;;;20.33;;
25481;SDS011;13395;50.752;4.268;2022-12-07T02:23:00;32.20;;;18.42;;
25481;SDS011;13395;50.752;4.268;2022-12-07T02:26:02;32.92;;;18.35;;
25481;SDS011;13395;50.752;4.268;2022-12-07T02:31:44;35.33;;;18.00;;
25481;SDS011;13395;50.752;4.268;2022-12-07T02:34:20;36.38;;;19.85;;
25481;SDS011;13395;50.752;4.268;2022-12-07T02:36:55;34.67;;;18.45;;
25481;SDS011;13395;50.752;4.268;2022-12-07T02:39:28;31.13;;;17.77;;
25481;SDS011;13395;50.752;4.268;2022-12-07T02:42:03;28.65;;;17.83;;
25481;SDS011;13395;50.752;4.268;2022-12-07T02:44:39;29.75;;;18.33;;
25481;SDS011;13395;50.752;4.268;2022-12-07T02:47:06;31.55;;;17.45;;
25481;SDS011;13395;50.752;4.268;2022-12-07T02:49:35;33.25;;;17.77;;
25481;SDS011;13395;50.752;4.268;2022-12-07T02:52:03;29.48;;;18.05;;
25481;SDS011;13395;50.752;4.268;2022-12-07T02:54:29;32.53;;;19.30;;
25481;SDS011;13395;50.752;4.268;2022-12-07T03:21:27;26.63;;;15.80;;
25481;SDS011;13395;50.752;4.268;2022-12-07T03:23:59;31.08;;;17.45;;
25481;SDS011;13395;50.752;4.268;2022-12-07T03:26:30;27.20;;;16.63;;
25481;SDS011;13395;50.752;4.268;2022-12-07T03:28:59;34.92;;;18.33;;
25481;SDS011;13395;50.752;4.268;2022-12-07T03:31:31;28.73;;;16.65;;
25481;SDS011;13395;50.752;4.268;2022-12-07T03:34:04;27.67;;;17.02;;
25481;SDS011;13395;50.752;4.268;2022-12-07T03:37:03;27.50;;;16.63;;
25481;SDS011;13395;50.752;4.268;2022-12-07T03:39:37;23.58;;;15.93;;
25481;SDS011;13395;50.752;4.268;2022-12-07T03:42:09;34.13;;;17.50;;
25481;SDS011;13395;50.752;4.268;2022-12-07T03:44:36;31.25;;;16.38;;
25481;SDS011;13395;50.752;4.268;2022-12-07T03:49:38;25.45;;;15.48;;
25481;SDS011;13395;50.752;4.268;2022-12-07T03:52:11;26.98;;;16.30;;
25481;SDS011;13395;50.752;4.268;2022-12-07T03:54:39;26.75;;;17.35;;
25481;SDS011;13395;50.752;4.268;2022-12-07T03:57:12;31.58;;;17.67;;
25481;SDS011;13395;50.752;4.268;2022-12-07T03:59:38;31.88;;;17.55;;
25481;SDS011;13395;50.752;4.268;2022-12-07T04:02:06;29.13;;;17.73;;
25481;SDS011;13395;50.752;4.268;2022-12-07T04:04:32;27.67;;;16.55;;
25481;SDS011;13395;50.752;4.268;2022-12-07T04:06:59;31.33;;;16.90;;
25481;SDS011;13395;50.752;4.268;2022-12-07T04:09:25;25.75;;;16.02;;
25481;SDS011;13395;50.752;4.268;2022-12-07T04:11:50;26.63;;;15.52;;
25481;SDS011;13395;50.752;4.268;2022-12-07T04:14:16;24.23;;;15.52;;
25481;SDS011;13395;50.752;4.268;2022-12-07T04:16:45;26.27;;;16.33;;
25481;SDS011;13395;50.752;4.268;2022-12-07T04:19:16;28.50;;;16.27;;
25481;SDS011;13395;50.752;4.268;2022-12-07T04:21:43;29.17;;;16.65;;
25481;SDS011;13395;50.752;4.268;2022-12-07T04:24:09;30.92;;;17.25;;
25481;SDS011;13395;50.752;4.268;2022-12-07T04:26:34;36.58;;;19.90;;
25481;SDS011;13395;50.752;4.268;2022-12-07T04:29:00;39.83;;;21.42;;
25481;SDS011;13395;50.752;4.268;2022-12-07T04:31:26;42.63;;;21.70;;
25481;SDS011;13395;50.752;4.268;2022-12-07T04:33:51;36.10;;;21.90;;
25481;SDS011;13395;50.752;4.268;2022-12-07T04:36:17;41.40;;;22.50;;
25481;SDS011;13395;50.752;4.268;2022-12-07T04:38:44;43.42;;;23.70;;
25481;SDS011;13395;50.752;4.268;2022-12-07T04:41:10;39.58;;;22.58;;
25481;SDS011;13395;50.752;4.268;2022-12-07T04:43:36;36.25;;;21.17;;
25481;SDS011;13395;50.752;4.268;2022-12-07T04:46:02;40.55;;;21.80;;
25481;SDS011;13395;50.752;4.268;2022-12-07T04:48:28;36.35;;;20.92;;
25481;SDS011;13395;50.752;4.268;2022-12-07T04:50:53;36.67;;;21.65;;
25481;SDS011;13395;50.752;4.268;2022-12-07T04:53:19;34.92;;;20.63;;
25481;SDS011;13395;50.752;4.268;2022-12-07T04:55:45;45.45;;;22.30;;
25481;SDS011;13395;50.752;4.268;2022-12-07T04:58:11;38.63;;;21.13;;
25481;SDS011;13395;50.752;4.268;2022-12-07T05:00:37;37.63;;;23.35;;
25481;SDS011;13395;50.752;4.268;2022-12-07T05:03:03;37.80;;;21.33;;
25481;SDS011;13395;50.752;4.268;2022-12-07T05:05:29;37.40;;;21.70;;
25481;SDS011;13395;50.752;4.268;2022-12-07T05:07:54;38.20;;;21.00;;
25481;SDS011;13395;50.752;4.268;2022-12-07T05:10:20;37.58;;;20.55;;
25481;SDS011;13395;50.752;4.268;2022-12-07T05:12:46;31.05;;;18.88;;
25481;SDS011;13395;50.752;4.268;2022-12-07T05:15:12;34.30;;;20.27;;
25481;SDS011;13395;50.752;4.268;2022-12-07T05:17:38;29.83;;;19.77;;
25481;SDS011;13395;50.752;4.268;2022-12-07T05:20:04;29.73;;;18.92;;
25481;SDS011;13395;50.752;4.268;2022-12-07T05:22:30;33.72;;;18.25;;
25481;SDS011;13395;50.752;4.268;2022-12-07T05:24:56;29.08;;;18.63;;
25481;SDS011;13395;50.752;4.268;2022-12-07T05:27:22;32.72;;;19.33;;
25481;SDS011;13395;50.752;4.268;2022-12-07T05:29:49;31.13;;;19.52;;
25481;SDS011;13395;50.752;4.268;2022-12-07T05:32:15;34.90;;;18.73;;
25481;SDS011;13395;50.752;4.268;2022-12-07T05:34:41;32.75;;;19.23;;
25481;SDS011;13395;50.752;4.268;2022-12-07T05:37:06;31.85;;;19.88;;
25481;SDS011;13395;50.752;4.268;2022-12-07T05:39:32;36.35;;;19.40;;
25481;SDS011;13395;50.752;4.268;2022-12-07T05:41:57;36.65;;;20.02;;
25481;SDS011;13395;50.752;4.268;2022-12-07T05:44:42;33.58;;;18.38;;
25481;SDS011;13395;50.752;4.268;2022-12-07T05:47:09;28.48;;;19.27;;
25481;SDS011;13395;50.752;4.268;2022-12-07T05:49:39;31.83;;;19.38;;
25481;SDS011;13395;50.752;4.268;2022-12-07T05:52:04;32.00;;;20.42;;
25481;SDS011;13395;50.752;4.268;2022-12-07T05:54:30;31.13;;;19.20;;
25481;SDS011;13395;50.752;4.268;2022-12-07T05:56:55;39.28;;;21.05;;
25481;SDS011;13395;50.752;4.268;2022-12-07T05:59:21;28.90;;;18.38;;
25481;SDS011;13395;50.752;4.268;2022-12-07T06:01:47;28.83;;;19.05;;
25481;SDS011;13395;50.752;4.268;2022-12-07T06:04:17;34.50;;;19.27;;
25481;SDS011;13395;50.752;4.268;2022-12-07T06:06:43;31.75;;;19.38;;
25481;SDS011;13395;50.752;4.268;2022-12-07T06:09:09;35.45;;;19.90;;
25481;SDS011;13395;50.752;4.268;2022-12-07T06:11:35;31.08;;;20.13;;
25481;SDS011;13395;50.752;4.268;2022-12-07T06:14:19;32.38;;;19.70;;
25481;SDS011;13395;50.752;4.268;2022-12-07T06:16:45;42.17;;;22.67;;
25481;SDS011;13395;50.752;4.268;2022-12-07T06:19:10;36.67;;;21.83;;
25481;SDS011;13395;50.752;4.268;2022-12-07T06:21:36;35.33;;;22.05;;
25481;SDS011;13395;50.752;4.268;2022-12-07T06:24:02;39.25;;;21.15;;
25481;SDS011;13395;50.752;4.268;2022-12-07T06:26:28;43.92;;;23.23;;
25481;SDS011;13395;50.752;4.268;2022-12-07T06:28:53;37.28;;;20.80;;
25481;SDS011;13395;50.752;4.268;2022-12-07T06:31:19;37.60;;;21.50;;
25481;SDS011;13395;50.752;4.268;2022-12-07T06:33:45;47.45;;;23.50;;
25481;SDS011;13395;50.752;4.268;2022-12-07T06:36:10;42.35;;;22.00;;
25481;SDS011;13395;50.752;4.268;2022-12-07T06:38:36;36.03;;;22.38;;
25481;SDS011;13395;50.752;4.268;2022-12-07T06:41:02;40.70;;;22.00;;
25481;SDS011;13395;50.752;4.268;2022-12-07T06:43:28;36.90;;;21.98;;
25481;SDS011;13395;50.752;4.268;2022-12-07T06:45:54;42.40;;;21.95;;
25481;SDS011;13395;50.752;4.268;2022-12-07T06:48:20;37.92;;;20.95;;
25481;SDS011;13395;50.752;4.268;2022-12-07T06:50:46;38.00;;;21.65;;
25481;SDS011;13395;50.752;4.268;2022-12-07T06:53:12;47.80;;;24.40;;
25481;SDS011;13395;50.752;4.268;2022-12-07T06:55:38;31.45;;;20.15;;
25481;SDS011;13395;50.752;4.268;2022-12-07T06:58:04;33.05;;;20.42;;
25481;SDS011;13395;50.752;4.268;2022-12-07T07:00:30;34.83;;;20.38;;
25481;SDS011;13395;50.752;4.268;2022-12-07T07:02:56;33.42;;;20.02;;
25481;SDS011;13395;50.752;4.268;2022-12-07T07:05:21;48.28;;;26.42;;
25481;SDS011;13395;50.752;4.268;2022-12-07T07:07:50;62.28;;;27.38;;
25481;SDS011;13395;50.752;4.268;2022-12-07T07:10:15;57.60;;;26.58;;
25481;SDS011;13395;50.752;4.268;2022-12-07T07:12:42;40.65;;;22.73;;
25481;SDS011;13395;50.752;4.268;2022-12-07T07:15:08;61.45;;;28.17;;
25481;SDS011;13395;50.752;4.268;2022-12-07T07:17:34;61.00;;;30.80;;
25481;SDS011;13395;50.752;4.268;2022-12-07T07:20:00;40.40;;;24.27;;
25481;SDS011;13395;50.752;4.268;2022-12-07T07:22:26;42.45;;;22.80;;
25481;SDS011;13395;50.752;4.268;2022-12-07T07:24:51;48.42;;;25.20;;
25481;SDS011;13395;50.752;4.268;2022-12-07T07:27:17;47.97;;;23.42;;
25481;SDS011;13395;50.752;4.268;2022-12-07T07:29:42;70.32;;;30.10;;
25481;SDS011;13395;50.752;4.268;2022-12-07T07:32:08;94.53;;;38.58;;
25481;SDS011;13395;50.752;4.268;2022-12-07T07:34:34;72.75;;;34.53;;
25481;SDS011;13395;50.752;4.268;2022-12-07T07:37:00;58.30;;;28.60;;
25481;SDS011;13395;50.752;4.268;2022-12-07T07:39:26;54.90;;;26.45;;
25481;SDS011;13395;50.752;4.268;2022-12-07T07:41:52;59.40;;;28.38;;
25481;SDS011;13395;50.752;4.268;2022-12-07T07:44:17;46.65;;;26.23;;
25481;SDS011;13395;50.752;4.268;2022-12-07T07:46:43;53.78;;;25.63;;
25481;SDS011;13395;50.752;4.268;2022-12-07T07:49:09;47.92;;;25.73;;
25481;SDS011;13395;50.752;4.268;2022-12-07T07:51:35;45.88;;;26.05;;
25481;SDS011;13395;50.752;4.268;2022-12-07T07:54:01;43.95;;;22.58;;
25481;SDS011;13395;50.752;4.268;2022-12-07T07:56:26;39.40;;;22.38;;
25481;SDS011;13395;50.752;4.268;2022-12-07T07:58:52;45.63;;;23.42;;
25481;SDS011;13395;50.752;4.268;2022-12-07T08:01:18;64.63;;;29.00;;
25481;SDS011;13395;50.752;4.268;2022-12-07T08:03:46;50.95;;;24.35;;
25481;SDS011;13395;50.752;4.268;2022-12-07T08:06:13;45.00;;;22.90;;
25481;SDS011;13395;50.752;4.268;2022-12-07T08:08:38;43.30;;;22.08;;
25481;SDS011;13395;50.752;4.268;2022-12-07T08:11:07;44.03;;;21.33;;
25481;SDS011;13395;50.752;4.268;2022-12-07T08:13:39;36.10;;;20.58;;
25481;SDS011;13395;50.752;4.268;2022-12-07T08:16:06;37.50;;;19.90;;
25481;SDS011;13395;50.752;4.268;2022-12-07T08:18:37;35.58;;;19.25;;
25481;SDS011;13395;50.752;4.268;2022-12-07T08:21:05;33.45;;;17.95;;
25481;SDS011;13395;50.752;4.268;2022-12-07T08:23:32;40.97;;;20.83;;
25481;SDS011;13395;50.752;4.268;2022-12-07T08:26:01;33.67;;;19.15;;
25481;SDS011;13395;50.752;4.268;2022-12-07T08:28:28;38.80;;;20.30;;
25481;SDS011;13395;50.752;4.268;2022-12-07T08:31:00;35.53;;;21.25;;
25481;SDS011;13395;50.752;4.268;2022-12-07T08:33:28;41.22;;;19.80;;
25481;SDS011;13395;50.752;4.268;2022-12-07T08:35:54;35.60;;;19.38;;
25481;SDS011;13395;50.752;4.268;2022-12-07T08:38:24;38.17;;;19.58;;
25481;SDS011;13395;50.752;4.268;2022-12-07T08:40:59;34.78;;;19.13;;
25481;SDS011;13395;50.752;4.268;2022-12-07T08:43:26;32.38;;;18.20;;
25481;SDS011;13395;50.752;4.268;2022-12-07T08:46:06;27.98;;;17.38;;
25481;SDS011;13395;50.752;4.268;2022-12-07T08:48:35;32.85;;;17.45;;
25481;SDS011;13395;50.752;4.268;2022-12-07T08:51:04;28.50;;;17.15;;
25481;SDS011;13395;50.752;4.268;2022-12-07T08:53:30;33.55;;;17.50;;
25481;SDS011;13395;50.752;4.268;2022-12-07T08:55:56;25.75;;;15.77;;
25481;SDS011;13395;50.752;4.268;2022-12-07T08:58:23;31.65;;;15.70;;
25481;SDS011;13395;50.752;4.268;2022-12-07T09:00:48;32.58;;;15.38;;
25481;SDS011;13395;50.752;4.268;2022-12-07T09:03:14;24.88;;;14.48;;
25481;SDS011;13395;50.752;4.268;2022-12-07T09:05:40;32.97;;;15.52;;
25481;SDS011;13395;50.752;4.268;2022-12-07T09:08:05;30.35;;;14.65;;
25481;SDS011;13395;50.752;4.268;2022-12-07T09:10:31;22.42;;;13.80;;
25481;SDS011;13395;50.752;4.268;2022-12-07T09:12:57;20.50;;;12.95;;
25481;SDS011;13395;50.752;4.268;2022-12-07T09:15:26;26.65;;;14.00;;
25481;SDS011;13395;50.752;4.268;2022-12-07T09:17:53;22.75;;;14.45;;
25481;SDS011;13395;50.752;4.268;2022-12-07T09:20:19;26.73;;;14.20;;
25481;SDS011;13395;50.752;4.268;2022-12-07T09:22:44;26.63;;;11.52;;
25481;SDS011;13395;50.752;4.268;2022-12-07T09:25:10;31.42;;;12.55;;
25481;SDS011;13395;50.752;4.268;2022-12-07T09:27:35;29.45;;;13.73;;
25481;SDS011;13395;50.752;4.268;2022-12-07T09:30:01;21.15;;;13.63;;
25481;SDS011;13395;50.752;4.268;2022-12-07T09:32:28;21.17;;;14.18;;
25481;SDS011;13395;50.752;4.268;2022-12-07T09:34:55;27.83;;;15.15;;
25481;SDS011;13395;50.752;4.268;2022-12-07T09:37:21;22.13;;;13.05;;
25481;SDS011;13395;50.752;4.268;2022-12-07T09:39:47;21.27;;;13.00;;
25481;SDS011;13395;50.752;4.268;2022-12-07T09:42:55;20.88;;;10.93;;
25481;SDS011;13395;50.752;4.268;2022-12-07T09:45:11;24.55;;;12.85;;
25481;SDS011;13395;50.752;4.268;2022-12-07T09:47:47;22.00;;;12.13;;
25481;SDS011;13395;50.752;4.268;2022-12-07T09:50:14;22.65;;;11.15;;
25481;SDS011;13395;50.752;4.268;2022-12-07T09:52:44;18.23;;;12.27;;
25481;SDS011;13395;50.752;4.268;2022-12-07T09:55:13;23.77;;;11.52;;
25481;SDS011;13395;50.752;4.268;2022-12-07T09:57:41;21.42;;;11.40;;
25481;SDS011;13395;50.752;4.268;2022-12-07T10:00:18;20.20;;;10.57;;
25481;SDS011;13395;50.752;4.268;2022-12-07T10:02:47;21.92;;;11.13;;
25481;SDS011;13395;50.752;4.268;2022-12-07T10:05:16;17.10;;;10.18;;
25481;SDS011;13395;50.752;4.268;2022-12-07T10:07:46;16.20;;;10.63;;
25481;SDS011;13395;50.752;4.268;2022-12-07T10:10:30;18.08;;;11.60;;
25481;SDS011;13395;50.752;4.268;2022-12-07T10:13:02;20.02;;;11.45;;
25481;SDS011;13395;50.752;4.268;2022-12-07T10:15:43;18.85;;;11.65;;
25481;SDS011;13395;50.752;4.268;2022-12-07T10:18:19;29.33;;;12.15;;
25481;SDS011;13395;50.752;4.268;2022-12-07T10:20:46;21.67;;;11.65;;
25481;SDS011;13395;50.752;4.268;2022-12-07T10:23:16;21.80;;;12.52;;
25481;SDS011;13395;50.752;4.268;2022-12-07T10:25:44;17.70;;;12.23;;
25481;SDS011;13395;50.752;4.268;2022-12-07T10:28:11;25.83;;;11.68;;
25481;SDS011;13395;50.752;4.268;2022-12-07T10:38:47;19.10;;;10.05;;
25481;SDS011;13395;50.752;4.268;2022-12-07T10:41:14;17.15;;;9.32;;
25481;SDS011;13395;50.752;4.268;2022-12-07T10:43:47;13.93;;;8.20;;
25481;SDS011;13395;50.752;4.268;2022-12-07T10:54:34;11.70;;;5.63;;
25481;SDS011;13395;50.752;4.268;2022-12-07T11:05:49;10.40;;;7.10;;
25481;SDS011;13395;50.752;4.268;2022-12-07T11:11:16;11.68;;;7.05;;
25481;SDS011;13395;50.752;4.268;2022-12-07T11:17:06;11.93;;;7.55;;
25481;SDS011;13395;50.752;4.268;2022-12-07T11:27:28;16.65;;;7.78;;
25481;SDS011;13395;50.752;4.268;2022-12-07T11:30:03;14.73;;;7.35;;
25481;SDS011;13395;50.752;4.268;2022-12-07T11:35:45;19.05;;;8.05;;
25481;SDS011;13395;50.752;4.268;2022-12-07T11:38:20;17.73;;;8.05;;
25481;SDS011;13395;50.752;4.268;2022-12-07T11:41:03;19.73;;;7.18;;
25481;SDS011;13395;50.752;4.268;2022-12-07T11:43:53;12.35;;;7.57;;
25481;SDS011;13395;50.752;4.268;2022-12-07T11:52:05;10.52;;;5.28;;
25481;SDS011;13395;50.752;4.268;2022-12-07T11:54:42;7.38;;;4.60;;
25481;SDS011;13395;50.752;4.268;2022-12-07T11:57:12;8.02;;;3.35;;
25481;SDS011;13395;50.752;4.268;2022-12-07T11:59:45;10.50;;;2.83;;
25481;SDS011;13395;50.752;4.268;2022-12-07T12:02:16;6.78;;;3.05;;
25481;SDS011;13395;50.752;4.268;2022-12-07T12:07:46;9.13;;;2.45;;
25481;SDS011;13395;50.752;4.268;2022-12-07T12:10:29;7.50;;;3.05;;
25481;SDS011;13395;50.752;4.268;2022-12-07T12:21:27;5.13;;;2.33;;
25481;SDS011;13395;50.752;4.268;2022-12-07T12:23:58;5.68;;;2.75;;
25481;SDS011;13395;50.752;4.268;2022-12-07T12:26:29;3.83;;;2.30;;
25481;SDS011;13395;50.752;4.268;2022-12-07T12:28:58;11.50;;;2.60;;
25481;SDS011;13395;50.752;4.268;2022-12-07T12:34:02;4.47;;;1.60;;
25481;SDS011;13395;50.752;4.268;2022-12-07T12:46:59;7.70;;;2.70;;
25481;SDS011;13395;50.752;4.268;2022-12-07T12:51:59;6.97;;;2.10;;
25481;SDS011;13395;50.752;4.268;2022-12-07T12:54:29;9.82;;;1.70;;
25481;SDS011;13395;50.752;4.268;2022-12-07T12:57:00;8.48;;;2.13;;
25481;SDS011;13395;50.752;4.268;2022-12-07T12:59:39;6.90;;;1.77;;
25481;SDS011;13395;50.752;4.268;2022-12-07T13:07:59;17.58;;;7.90;;
25481;SDS011;13395;50.752;4.268;2022-12-07T13:10:42;29.80;;;12.13;;
25481;SDS011;13395;50.752;4.268;2022-12-07T13:15:43;18.45;;;9.45;;
25481;SDS011;13395;50.752;4.268;2022-12-07T13:18:24;17.27;;;10.52;;
25481;SDS011;13395;50.752;4.268;2022-12-07T13:23:51;12.23;;;4.78;;
25481;SDS011;13395;50.752;4.268;2022-12-07T13:28:50;13.68;;;4.32;;
25481;SDS011;13395;50.752;4.268;2022-12-07T13:31:36;10.63;;;3.10;;
25481;SDS011;13395;50.752;4.268;2022-12-07T13:34:03;6.85;;;3.03;;
25481;SDS011;13395;50.752;4.268;2022-12-07T13:36:34;9.73;;;3.33;;
25481;SDS011;13395;50.752;4.268;2022-12-07T13:39:19;7.15;;;3.05;;
25481;SDS011;13395;50.752;4.268;2022-12-07T13:41:54;8.52;;;3.38;;
25481;SDS011;13395;50.752;4.268;2022-12-07T13:44:22;9.43;;;3.40;;
25481;SDS011;13395;50.752;4.268;2022-12-07T13:46:59;6.47;;;4.10;;
25481;SDS011;13395;50.752;4.268;2022-12-07T13:49:55;9.52;;;3.28;;
25481;SDS011;13395;50.752;4.268;2022-12-07T13:52:25;4.03;;;2.75;;
25481;SDS011;13395;50.752;4.268;2022-12-07T13:57:24;6.35;;;3.05;;
25481;SDS011;13395;50.752;4.268;2022-12-07T13:59:51;8.05;;;2.40;;
25481;SDS011;13395;50.752;4.268;2022-12-07T14:02:30;6.65;;;3.15;;
25481;SDS011;13395;50.752;4.268;2022-12-07T14:13:27;6.25;;;2.65;;
25481;SDS011;13395;50.752;4.268;2022-12-07T14:16:01;7.57;;;2.53;;
25481;SDS011;13395;50.752;4.268;2022-12-07T14:21:14;12.55;;;2.80;;
25481;SDS011;13395;50.752;4.268;2022-12-07T14:23:43;13.20;;;3.38;;
25481;SDS011;13395;50.752;4.268;2022-12-07T14:26:15;6.50;;;2.60;;
25481;SDS011;13395;50.752;4.268;2022-12-07T14:28:45;7.25;;;2.58;;
25481;SDS011;13395;50.752;4.268;2022-12-07T14:31:16;5.85;;;2.60;;
25481;SDS011;13395;50.752;4.268;2022-12-07T14:33:45;8.18;;;2.83;;
25481;SDS011;13395;50.752;4.268;2022-12-07T14:36:11;13.48;;;3.15;;
25481;SDS011;13395;50.752;4.268;2022-12-07T14:38:37;7.47;;;2.83;;
25481;SDS011;13395;50.752;4.268;2022-12-07T14:41:04;15.00;;;4.68;;
25481;SDS011;13395;50.752;4.268;2022-12-07T14:43:49;13.15;;;4.57;;
25481;SDS011;13395;50.752;4.268;2022-12-07T14:46:15;6.20;;;3.13;;
25481;SDS011;13395;50.752;4.268;2022-12-07T14:48:41;9.25;;;3.28;;
25481;SDS011;13395;50.752;4.268;2022-12-07T14:51:07;7.75;;;3.08;;
25481;SDS011;13395;50.752;4.268;2022-12-07T14:53:36;7.50;;;3.35;;
25481;SDS011;13395;50.752;4.268;2022-12-07T14:56:06;6.30;;;2.88;;
25481;SDS011;13395;50.752;4.268;2022-12-07T14:58:32;7.82;;;3.20;;
25481;SDS011;13395;50.752;4.268;2022-12-07T15:00:58;8.30;;;4.65;;
25481;SDS011;13395;50.752;4.268;2022-12-07T15:03:24;7.43;;;3.90;;
25481;SDS011;13395;50.752;4.268;2022-12-07T15:05:50;6.78;;;3.80;;
25481;SDS011;13395;50.752;4.268;2022-12-07T15:08:15;8.38;;;3.80;;
25481;SDS011;13395;50.752;4.268;2022-12-07T15:10:41;6.15;;;4.82;;
25481;SDS011;13395;50.752;4.268;2022-12-07T15:13:07;5.65;;;3.50;;
25481;SDS011;13395;50.752;4.268;2022-12-07T15:15:52;4.75;;;2.58;;
25481;SDS011;13395;50.752;4.268;2022-12-07T15:18:19;4.47;;;2.40;;
25481;SDS011;13395;50.752;4.268;2022-12-07T15:20:45;4.05;;;2.47;;
25481;SDS011;13395;50.752;4.268;2022-12-07T15:23:11;5.78;;;2.60;;
25481;SDS011;13395;50.752;4.268;2022-12-07T15:25:41;4.80;;;2.00;;
25481;SDS011;13395;50.752;4.268;2022-12-07T15:28:11;5.43;;;2.00;;
25481;SDS011;13395;50.752;4.268;2022-12-07T15:30:38;7.05;;;2.15;;
25481;SDS011;13395;50.752;4.268;2022-12-07T15:33:04;6.05;;;2.10;;
25481;SDS011;13395;50.752;4.268;2022-12-07T15:35:30;3.97;;;1.63;;
25481;SDS011;13395;50.752;4.268;2022-12-07T15:37:55;4.13;;;2.05;;
25481;SDS011;13395;50.752;4.268;2022-12-07T15:40:21;9.57;;;1.98;;
25481;SDS011;13395;50.752;4.268;2022-12-07T15:42:47;5.25;;;1.90;;
25481;SDS011;13395;50.752;4.268;2022-12-07T15:45:13;3.92;;;2.15;;
25481;SDS011;13395;50.752;4.268;2022-12-07T15:47:40;4.57;;;2.20;;
25481;SDS011;13395;50.752;4.268;2022-12-07T15:50:09;3.40;;;1.95;;
25481;SDS011;13395;50.752;4.268;2022-12-07T15:52:36;3.45;;;1.85;;
25481;SDS011;13395;50.752;4.268;2022-12-07T15:55:02;4.82;;;1.90;;
25481;SDS011;13395;50.752;4.268;2022-12-07T15:57:29;6.20;;;3.05;;
25481;SDS011;13395;50.752;4.268;2022-12-07T15:59:54;8.00;;;4.18;;
25481;SDS011;13395;50.752;4.268;2022-12-07T16:02:20;7.38;;;5.05;;
25481;SDS011;13395;50.752;4.268;2022-12-07T16:04:47;9.45;;;4.00;;
25481;SDS011;13395;50.752;4.268;2022-12-07T16:07:13;12.90;;;3.80;;
25481;SDS011;13395;50.752;4.268;2022-12-07T16:09:40;6.28;;;3.40;;
25481;SDS011;13395;50.752;4.268;2022-12-07T16:12:10;5.72;;;3.13;;
25481;SDS011;13395;50.752;4.268;2022-12-07T16:14:36;6.13;;;3.95;;
25481;SDS011;13395;50.752;4.268;2022-12-07T16:17:02;6.10;;;3.20;;
25481;SDS011;13395;50.752;4.268;2022-12-07T16:19:29;4.43;;;1.90;;
25481;SDS011;13395;50.752;4.268;2022-12-07T16:21:55;5.82;;;1.70;;
25481;SDS011;13395;50.752;4.268;2022-12-07T16:24:21;2.95;;;1.73;;
25481;SDS011;13395;50.752;4.268;2022-12-07T16:26:47;7.93;;;2.15;;
25481;SDS011;13395;50.752;4.268;2022-12-07T16:29:13;4.15;;;2.70;;
25481;SDS011;13395;50.752;4.268;2022-12-07T16:31:39;8.77;;;2.10;;
25481;SDS011;13395;50.752;4.268;2022-12-07T16:34:05;3.67;;;1.88;;
25481;SDS011;13395;50.752;4.268;2022-12-07T16:36:31;5.90;;;1.90;;
25481;SDS011;13395;50.752;4.268;2022-12-07T16:39:00;3.13;;;1.80;;
25481;SDS011;13395;50.752;4.268;2022-12-07T16:41:26;9.70;;;2.00;;
25481;SDS011;13395;50.752;4.268;2022-12-07T16:43:52;8.02;;;2.72;;
25481;SDS011;13395;50.752;4.268;2022-12-07T16:46:18;15.40;;;6.30;;
25481;SDS011;13395;50.752;4.268;2022-12-07T16:48:44;14.70;;;5.22;;
25481;SDS011;13395;50.752;4.268;2022-12-07T16:51:10;10.18;;;4.65;;
25481;SDS011;13395;50.752;4.268;2022-12-07T16:53:38;5.65;;;2.55;;
25481;SDS011;13395;50.752;4.268;2022-12-07T16:56:12;8.88;;;3.40;;